Time;durP1;ratioP1;P1;durP2;ratioP2;P2;SDS_P1;SDS_P2;PMS_P1;PMS_P2;Temp;Humidity;BMP_temperature;BMP_pressure;BME280_temperature;BME280_humidity;BME280_pressure;Samples;Min_cycle;Max_cycle;Signal;HPM_P1;HPM_P2
2022/05/27 00:00:41;;;;;;;;;9.67;8.33;;;;;22.22;40.97;100610.27;110282;1262;19495;-49
2022/05/27 00:03:08;;;;;;;;;8.00;6.67;;;;;22.22;41.05;100611.73;110282;1262;19127;-47
2022/05/27 00:05:35;;;;;;;;;8.00;8.00;;;;;22.21;41.03;100607.28;110359;1262;18793;-48
2022/05/27 00:08:03;;;;;;;;;6.00;6.00;;;;;22.21;41.00;100605.34;110206;1262;19551;-47
2022/05/27 00:10:30;;;;;;;;;9.67;8.67;;;;;22.20;40.99;100602.89;110220;1264;18508;-48
2022/05/27 00:12:57;;;;;;;;;6.00;5.50;;;;;22.20;41.04;100600.91;110294;1263;19127;-48
2022/05/27 00:15:24;;;;;;;;;7.33;7.33;;;;;22.20;41.03;100594.88;110294;1264;22953;-48
2022/05/27 00:17:52;;;;;;;;;6.00;5.67;;;;;22.20;41.11;100593.11;110333;1264;18738;-49
2022/05/27 00:20:19;;;;;;;;;8.00;6.00;;;;;22.18;40.99;100586.92;110303;1262;18863;-48
2022/05/27 00:22:46;;;;;;;;;8.00;8.00;;;;;22.17;40.93;100587.57;110322;1262;19678;-49
2022/05/27 00:25:14;;;;;;;;;5.00;5.00;;;;;22.17;41.05;100587.57;110260;1264;18574;-49
2022/05/27 00:27:41;;;;;;;;;8.00;7.33;;;;;22.17;40.98;100582.14;110257;1264;18993;-49
2022/05/27 00:30:09;;;;;;;;;6.00;6.00;;;;;22.17;41.00;100576.30;110254;1263;19796;-48
2022/05/27 00:32:36;;;;;;;;;5.00;5.00;;;;;22.17;40.99;100573.78;110293;1263;18424;-48
2022/05/27 00:35:04;;;;;;;;;6.67;6.00;;;;;22.17;41.07;100570.92;110284;1264;18901;-48
2022/05/27 00:37:31;;;;;;;;;7.33;6.00;;;;;22.18;41.12;100560.96;110226;1264;20160;-47
2022/05/27 00:39:58;;;;;;;;;5.33;5.00;;;;;22.17;41.32;100560.66;110304;1264;18721;-49
2022/05/27 00:42:26;;;;;;;;;5.00;5.00;;;;;22.18;41.22;100566.76;110282;1264;18781;-48
2022/05/27 00:44:53;;;;;;;;;6.00;5.00;;;;;22.18;41.30;100563.99;110302;1264;22800;-44
2022/05/27 00:47:20;;;;;;;;;9.67;5.00;;;;;22.17;41.35;100566.27;110269;1264;18421;-47
2022/05/27 00:49:47;;;;;;;;;6.00;5.00;;;;;22.17;41.38;100561.39;110290;1264;18620;-48
2022/05/27 00:52:14;;;;;;;;;6.00;6.00;;;;;22.18;41.53;100564.71;110293;1264;19575;-48
2022/05/27 00:54:42;;;;;;;;;6.00;6.00;;;;;22.17;41.60;100562.84;110173;1264;22273;-50
2022/05/27 00:57:09;;;;;;;;;5.33;5.00;;;;;22.16;41.55;100558.58;110282;1262;18861;-48
2022/05/27 00:59:36;;;;;;;;;6.00;6.00;;;;;22.16;41.79;100553.65;110309;1264;19567;-48
2022/05/27 01:02:03;;;;;;;;;5.00;5.00;;;;;22.16;41.73;100552.98;110278;1262;20157;-48
2022/05/27 01:04:31;;;;;;;;;5.00;4.33;;;;;22.15;41.84;100555.66;110269;1263;32850;-48
2022/05/27 01:06:58;;;;;;;;;6.67;6.00;;;;;22.14;42.20;100554.61;110312;1264;19610;-49
2022/05/27 01:09:25;;;;;;;;;6.00;6.00;;;;;22.15;41.92;100551.97;110274;1263;18629;-48
2022/05/27 01:11:52;;;;;;;;;6.00;5.00;;;;;22.14;42.32;100551.21;110341;1262;22735;-49
2022/05/27 01:14:19;;;;;;;;;4.67;4.67;;;;;22.14;42.40;100546.84;110308;1262;19629;-50
2022/05/27 01:16:47;;;;;;;;;8.00;5.33;;;;;22.13;42.62;100546.16;110299;1262;18487;-49
2022/05/27 01:21:59;;;;;;;;;5.00;5.00;;;;;22.13;42.81;100548.23;110297;1264;19536;-48
2022/05/27 01:24:26;;;;;;;;;5.00;4.33;;;;;22.11;42.95;100546.38;110279;1264;18430;-48
2022/05/27 01:26:53;;;;;;;;;6.00;5.00;;;;;22.10;43.14;100540.00;110287;1264;18938;-47
2022/05/27 01:29:21;;;;;;;;;6.00;5.00;;;;;22.10;43.33;100533.97;110299;1262;20949;-48
2022/05/27 01:31:48;;;;;;;;;5.00;5.00;;;;;22.10;43.37;100529.09;110313;1262;18509;-52
2022/05/27 01:34:15;;;;;;;;;5.00;5.00;;;;;22.09;43.58;100521.54;110250;1264;22668;-50
2022/05/27 01:36:42;;;;;;;;;5.00;5.00;;;;;22.09;43.74;100520.81;110301;1262;19433;-47
2022/05/27 01:39:10;;;;;;;;;5.00;5.00;;;;;22.08;43.97;100518.54;110292;1262;20736;-47
2022/05/27 01:41:37;;;;;;;;;5.00;5.00;;;;;22.08;44.02;100516.38;110307;1262;22508;-49
2022/05/27 01:44:04;;;;;;;;;5.67;4.67;;;;;22.08;44.23;100505.67;110251;1264;23335;-47
2022/05/27 01:46:32;;;;;;;;;5.00;5.00;;;;;22.07;44.26;100492.52;110270;1264;19012;-48
2022/05/27 01:48:59;;;;;;;;;5.00;5.00;;;;;22.06;44.43;100486.79;110299;1264;18767;-49
2022/05/27 01:51:26;;;;;;;;;10.00;6.67;;;;;22.08;44.59;100487.36;110322;1262;19588;-48
2022/05/27 01:53:53;;;;;;;;;5.00;5.00;;;;;22.08;44.78;100483.80;110223;1264;18463;-47
2022/05/27 01:56:20;;;;;;;;;5.50;5.00;;;;;22.09;44.84;100480.31;110324;1262;19037;-47
2022/05/27 01:58:48;;;;;;;;;5.00;5.00;;;;;22.08;44.99;100480.48;110233;1262;19649;-49
2022/05/27 02:01:15;;;;;;;;;8.00;6.00;;;;;22.09;44.91;100477.93;110298;1262;19870;-47
2022/05/27 02:03:42;;;;;;;;;5.00;5.00;;;;;22.08;45.09;100472.67;110274;1262;18588;-48
2022/05/27 02:06:09;;;;;;;;;5.00;5.00;;;;;22.08;45.18;100467.88;110303;1262;19550;-46
2022/05/27 02:08:37;;;;;;;;;5.00;5.00;;;;;22.07;45.23;100461.58;110322;1262;18587;-49
2022/05/27 02:11:04;;;;;;;;;4.00;4.00;;;;;22.06;45.22;100460.96;110330;1262;20320;-48
2022/05/27 02:13:31;;;;;;;;;5.00;5.00;;;;;22.06;45.37;100467.48;110319;1262;19664;-48
2022/05/27 02:15:59;;;;;;;;;4.00;4.00;;;;;22.07;45.35;100464.00;110305;1262;22396;-49
2022/05/27 02:18:26;;;;;;;;;4.67;4.67;;;;;22.05;45.55;100456.58;110338;1262;18760;-49
2022/05/27 02:20:53;;;;;;;;;8.00;6.00;;;;;22.05;45.45;100450.67;110349;1262;20989;-48
2022/05/27 02:23:20;;;;;;;;;6.67;6.00;;;;;22.04;45.74;100455.18;110290;1262;22389;-50
2022/05/27 02:25:48;;;;;;;;;5.00;5.00;;;;;22.04;45.66;100449.64;110271;1262;18779;-47
2022/05/27 02:28:15;;;;;;;;;4.33;4.33;;;;;22.04;45.79;100449.56;110312;1262;19658;-48
2022/05/27 02:30:42;;;;;;;;;4.67;4.67;;;;;22.04;45.67;100444.60;110352;1262;18803;-48
2022/05/27 02:35:54;;;;;;;;;5.00;5.00;;;;;22.04;45.90;100440.36;110334;1262;19593;-48
2022/05/27 02:38:22;;;;;;;;;5.33;5.00;;;;;22.02;45.90;100443.80;110310;1262;22740;-49
2022/05/27 02:40:49;;;;;;;;;5.00;5.00;;;;;22.02;45.95;100441.23;110314;1262;21878;-48
2022/05/27 02:43:16;;;;;;;;;6.00;6.00;;;;;22.02;46.03;100437.87;110320;1262;19665;-48
2022/05/27 02:45:43;;;;;;;;;5.50;5.50;;;;;22.00;46.02;100433.14;110284;1262;22956;-48
2022/05/27 02:48:10;;;;;;;;;7.33;6.00;;;;;22.00;46.16;100431.88;110311;1262;22656;-48
2022/05/27 02:50:38;;;;;;;;;7.00;5.00;;;;;22.01;46.24;100429.59;110338;1261;19429;-48
2022/05/27 02:53:05;;;;;;;;;5.00;5.00;;;;;22.01;46.23;100427.07;110311;1262;18476;-48
2022/05/27 02:55:32;;;;;;;;;5.00;5.00;;;;;22.00;46.22;100424.64;110308;1262;22955;-49
2022/05/27 02:58:02;;;;;;;;;5.00;5.00;;;;;21.99;46.28;100422.33;110296;1262;19795;-48
2022/05/27 03:00:29;;;;;;;;;4.00;4.00;;;;;22.00;46.35;100421.89;110295;1263;18529;-48
2022/05/27 03:02:59;;;;;;;;;8.00;6.00;;;;;22.00;46.40;100421.48;110302;1262;18905;-47
2022/05/27 03:05:26;;;;;;;;;5.00;5.00;;;;;22.01;46.29;100419.55;110268;1264;22449;-49
2022/05/27 03:07:56;;;;;;;;;6.00;6.00;;;;;22.00;46.33;100415.72;110316;1262;22412;-48
2022/05/27 03:10:23;;;;;;;;;5.00;5.00;;;;;22.00;46.42;100412.45;110296;1264;19033;-48
2022/05/27 03:12:50;;;;;;;;;6.00;6.00;;;;;22.01;46.34;100415.15;110293;1264;19535;-48
2022/05/27 03:15:17;;;;;;;;;5.00;5.00;;;;;22.00;46.60;100408.07;110311;1263;22831;-51
2022/05/27 03:17:45;;;;;;;;;5.00;5.00;;;;;22.00;46.44;100406.06;110338;1264;18682;-48
2022/05/27 03:20:12;;;;;;;;;7.33;7.33;;;;;22.00;46.50;100405.55;110259;1264;19711;-47
2022/05/27 03:22:39;;;;;;;;;8.00;8.00;;;;;22.00;46.71;100401.35;110253;1264;22396;-48
2022/05/27 03:25:06;;;;;;;;;8.33;7.33;;;;;22.00;46.54;100400.85;110285;1264;18850;-48
2022/05/27 03:27:34;;;;;;;;;6.00;6.00;;;;;22.00;46.50;100405.73;110286;1264;19777;-49
2022/05/27 03:30:01;;;;;;;;;6.67;6.67;;;;;22.00;46.55;100402.48;110335;1264;22982;-48
2022/05/27 03:32:28;;;;;;;;;9.00;8.00;;;;;22.00;46.74;100402.45;110309;1264;19211;-48
2022/05/27 03:34:55;;;;;;;;;6.00;6.00;;;;;21.98;46.73;100395.88;110283;1262;19656;-49
2022/05/27 03:37:23;;;;;;;;;6.00;6.00;;;;;21.99;46.89;100391.52;110263;1262;21992;-49
2022/05/27 03:39:50;;;;;;;;;8.50;8.00;;;;;21.99;46.77;100392.52;110290;1263;18798;-48
2022/05/27 03:42:19;;;;;;;;;8.00;8.00;;;;;21.99;46.81;100386.93;110208;1263;19618;-50
2022/05/27 03:44:47;;;;;;;;;9.00;7.33;;;;;21.99;47.01;100389.33;110279;1264;18555;-48
2022/05/27 03:47:14;;;;;;;;;6.00;6.00;;;;;21.98;46.91;100387.36;110236;1262;18939;-47
2022/05/27 03:49:41;;;;;;;;;6.00;6.00;;;;;21.99;47.03;100384.92;110251;1264;19540;-49
2022/05/27 03:52:09;;;;;;;;;8.33;8.33;;;;;21.99;47.16;100379.70;110254;1264;18602;-49
2022/05/27 03:54:37;;;;;;;;;7.00;6.00;;;;;21.98;47.09;100380.50;110281;1264;18810;-48
2022/05/27 03:57:04;;;;;;;;;9.00;8.67;;;;;21.98;47.15;100379.20;110314;1264;21730;-47
2022/05/27 03:59:32;;;;;;;;;8.00;8.00;;;;;21.98;47.19;100381.05;110313;1264;18529;-48
2022/05/27 04:01:59;;;;;;;;;8.00;6.00;;;;;21.97;47.21;100376.55;110302;1264;19848;-49
2022/05/27 04:04:26;;;;;;;;;5.33;5.33;;;;;21.97;47.16;100371.02;110285;1264;20104;-46
2022/05/27 04:06:54;;;;;;;;;8.33;8.00;;;;;21.97;47.20;100366.98;110287;1264;18874;-45
2022/05/27 04:09:21;;;;;;;;;9.00;8.33;;;;;21.96;47.43;100367.61;110323;1264;18799;-45
2022/05/27 04:11:48;;;;;;;;;6.00;6.00;;;;;21.97;47.53;100362.45;110269;1264;19773;-47
2022/05/27 04:14:15;;;;;;;;;9.00;9.00;;;;;21.97;47.40;100357.66;110264;1262;22912;-50
2022/05/27 04:16:43;;;;;;;;;9.33;8.00;;;;;21.97;47.39;100350.48;110251;1264;18750;-50
2022/05/27 04:19:10;;;;;;;;;12.00;9.00;;;;;21.97;47.55;100348.30;110303;1263;19477;-46
2022/05/27 04:21:37;;;;;;;;;10.00;8.67;;;;;21.97;47.38;100345.23;110274;1264;18658;-48
2022/05/27 04:24:04;;;;;;;;;8.33;8.00;;;;;21.97;47.49;100335.02;110315;1262;21837;-50
2022/05/27 04:26:32;;;;;;;;;6.00;6.00;;;;;21.96;47.50;100329.95;110327;1264;19644;-50
2022/05/27 04:29:00;;;;;;;;;8.00;8.00;;;;;21.97;47.80;100330.66;110277;1264;18658;-47
2022/05/27 04:31:27;;;;;;;;;8.00;7.33;;;;;21.96;47.74;100331.46;110240;1264;21401;-48
2022/05/27 04:33:54;;;;;;;;;8.00;8.00;;;;;21.96;47.74;100332.34;110262;1263;22817;-48
2022/05/27 04:36:22;;;;;;;;;8.00;8.00;;;;;21.96;48.06;100336.37;110213;1263;18630;-46
2022/05/27 04:38:49;;;;;;;;;8.00;8.00;;;;;21.95;47.97;100334.02;110282;1264;19102;-46
2022/05/27 04:41:17;;;;;;;;;6.00;6.00;;;;;21.94;48.06;100328.23;110224;1264;19623;-48
2022/05/27 04:43:44;;;;;;;;;9.00;8.00;;;;;21.95;48.13;100318.52;110234;1264;18481;-46
2022/05/27 04:46:11;;;;;;;;;6.00;6.00;;;;;21.94;48.20;100315.33;110234;1263;18753;-47
2022/05/27 04:48:38;;;;;;;;;8.00;6.00;;;;;21.93;48.28;100312.56;110181;1262;19609;-45
2022/05/27 04:51:07;;;;;;;;;9.00;8.67;;;;;21.96;48.28;100307.86;110133;1263;22680;-47
2022/05/27 04:53:34;;;;;;;;;9.67;8.67;;;;;22.00;48.09;100305.98;110263;1262;19579;-46
2022/05/27 04:56:02;;;;;;;;;8.00;8.00;;;;;22.07;48.08;100314.81;110251;1262;19468;-48
2022/05/27 04:58:29;;;;;;;;;8.00;8.00;;;;;22.14;47.72;100316.63;110292;1263;18992;-47
2022/05/27 05:00:58;;;;;;;;;8.00;8.00;;;;;22.21;47.55;100316.02;110283;1263;18749;-50
2022/05/27 05:03:25;;;;;;;;;9.00;9.00;;;;;22.26;48.64;100312.98;110225;1263;19559;-48
2022/05/27 05:05:53;;;;;;;;;8.00;8.00;;;;;22.34;50.44;100312.78;110315;1263;18814;-47
2022/05/27 05:08:20;;;;;;;;;8.50;8.50;;;;;22.36;49.80;100307.62;110191;1263;18800;-50
2022/05/27 05:10:47;;;;;;;;;8.00;8.00;;;;;22.32;49.71;100302.67;110151;1263;20031;-48
2022/05/27 05:13:15;;;;;;;;;6.00;6.00;;;;;22.34;49.41;100296.64;110189;1264;19118;-48
2022/05/27 05:15:42;;;;;;;;;8.00;8.00;;;;;22.32;49.51;100292.64;110193;1264;18752;-49
2022/05/27 05:18:10;;;;;;;;;8.00;7.00;;;;;22.36;49.87;100302.13;110220;1263;19540;-48
2022/05/27 05:20:37;;;;;;;;;8.00;8.00;;;;;22.35;49.79;100299.89;110210;1264;18492;-48
2022/05/27 05:23:04;;;;;;;;;8.00;6.00;;;;;22.34;49.83;100298.98;110237;1264;18768;-48
2022/05/27 05:25:33;;;;;;;;;8.00;6.00;;;;;22.36;49.91;100290.73;110186;1264;22173;-47
2022/05/27 05:28:01;;;;;;;;;6.00;6.00;;;;;22.38;49.68;100282.39;110225;1264;18359;-48
2022/05/27 05:30:28;;;;;;;;;8.33;8.33;;;;;22.39;49.39;100283.86;110262;1262;18787;-47
2022/05/27 05:32:56;;;;;;;;;8.00;8.00;;;;;22.39;49.81;100285.58;110299;1264;19530;-47
2022/05/27 05:35:23;;;;;;;;;10.00;8.00;;;;;22.47;49.91;100284.34;110219;1262;18432;-49
2022/05/27 05:37:50;;;;;;;;;8.00;8.00;;;;;22.53;50.07;100282.64;110177;1263;18746;-47
2022/05/27 05:40:17;;;;;;;;;8.00;8.00;;;;;22.54;50.11;100270.29;110147;1264;21901;-47
2022/05/27 05:42:46;;;;;;;;;8.33;7.33;;;;;22.52;49.90;100265.81;109737;1262;607466;-48
2022/05/27 05:45:13;;;;;;;;;8.67;8.33;;;;;22.55;50.23;100269.52;110241;1263;18722;-47
2022/05/27 05:47:41;;;;;;;;;8.50;7.00;;;;;22.61;50.28;100276.25;110228;1264;23123;-50
2022/05/27 05:50:08;;;;;;;;;8.00;8.00;;;;;22.68;50.32;100278.17;110198;1263;18751;-47
2022/05/27 05:52:35;;;;;;;;;9.00;9.00;;;;;22.54;49.90;100277.70;110213;1264;18926;-48
2022/05/27 05:55:03;;;;;;;;;9.00;8.00;;;;;22.26;51.08;100277.17;110226;1263;21817;-47
2022/05/27 05:57:31;;;;;;;;;6.00;6.00;;;;;22.04;51.39;100274.02;110291;1263;18416;-49
2022/05/27 05:59:58;;;;;;;;;6.00;6.00;;;;;21.93;51.78;100273.15;110272;1262;19138;-49
2022/05/27 06:02:25;;;;;;;;;5.00;5.00;;;;;21.96;51.68;100270.30;110260;1263;19534;-48
2022/05/27 06:04:52;;;;;;;;;8.50;8.00;;;;;21.89;51.96;100269.94;110135;1264;18435;-48
2022/05/27 06:07:20;;;;;;;;;8.00;6.00;;;;;21.83;52.34;100273.32;110258;1264;18869;-52
2022/05/27 06:09:47;;;;;;;;;6.00;6.00;;;;;21.77;52.51;100273.98;110200;1262;19647;-48
2022/05/27 06:12:16;;;;;;;;;8.00;8.00;;;;;21.80;52.34;100271.70;110210;1262;18467;-48
2022/05/27 06:14:44;;;;;;;;;8.00;6.00;;;;;21.88;52.11;100265.19;110147;1264;18885;-50
2022/05/27 06:17:11;;;;;;;;;5.00;5.00;;;;;21.95;51.76;100253.55;110263;1264;19711;-44
2022/05/27 06:19:38;;;;;;;;;8.67;8.00;;;;;21.97;51.55;100255.82;110249;1263;18413;-48
2022/05/27 06:22:06;;;;;;;;;5.00;5.00;;;;;21.96;51.48;100256.66;110225;1262;20096;-47
2022/05/27 06:24:33;;;;;;;;;5.00;5.00;;;;;21.96;51.45;100256.85;110266;1263;19638;-48
2022/05/27 06:27:00;;;;;;;;;6.00;5.67;;;;;21.93;51.59;100251.83;110325;1262;20464;-48
2022/05/27 06:34:56;;;;;;;;;5.00;5.00;;;;;22.08;51.33;100233.21;109567;1269;18615;-48
2022/05/27 06:37:23;;;;;;;;;5.00;5.00;;;;;22.10;51.14;100239.29;109407;1268;18926;-48
2022/05/27 06:39:50;;;;;;;;;5.67;5.67;;;;;22.09;51.38;100251.36;109470;1269;19670;-48
2022/05/27 06:42:17;;;;;;;;;5.00;5.00;;;;;22.06;51.33;100252.83;109417;1269;21457;-48
2022/05/27 06:44:45;;;;;;;;;5.00;5.00;;;;;22.01;51.46;100248.80;109590;1269;22608;-48
2022/05/27 06:47:13;;;;;;;;;6.00;6.00;;;;;21.99;51.42;100254.65;109516;1269;19804;-48
2022/05/27 06:49:43;;;;;;;;;8.00;6.00;;;;;21.97;51.69;100257.63;109552;1269;18437;-48
2022/05/27 06:52:10;;;;;;;;;9.00;6.00;;;;;21.94;51.63;100257.47;109541;1269;18995;-48
2022/05/27 06:54:38;;;;;;;;;9.00;9.00;;;;;21.96;51.60;100252.38;109533;1269;19553;-45
2022/05/27 06:57:05;;;;;;;;;8.00;6.00;;;;;21.96;51.45;100240.08;109576;1269;18559;-48
2022/05/27 06:59:33;;;;;;;;;9.00;8.67;;;;;21.92;51.47;100236.89;109515;1269;18840;-47
2022/05/27 07:02:00;;;;;;;;;12.67;9.00;;;;;21.92;51.62;100228.31;109528;1270;19644;-48
2022/05/27 07:04:27;;;;;;;;;10.00;9.00;;;;;21.95;51.46;100219.45;109459;1269;19353;-49
2022/05/27 07:06:57;;;;;;;;;9.00;9.00;;;;;21.94;51.72;100217.10;109560;1269;18949;-48
2022/05/27 07:09:24;;;;;;;;;10.00;10.00;;;;;21.82;52.28;100222.48;109697;1265;19556;-47
2022/05/27 07:11:51;;;;;;;;;12.00;12.00;;;;;21.77;52.29;100228.39;110244;1264;18539;-47
2022/05/27 07:14:18;;;;;;;;;12.00;11.00;;;;;21.69;52.45;100226.73;110193;1265;19090;-49
2022/05/27 07:16:45;;;;;;;;;13.00;12.00;;;;;21.63;52.41;100228.05;110089;1266;19850;-49
2022/05/27 07:19:13;;;;;;;;;12.00;10.50;;;;;21.57;52.61;100219.78;110169;1264;18761;-49
2022/05/27 07:21:40;;;;;;;;;9.00;9.00;;;;;21.58;52.80;100216.02;110039;1265;20492;-48
2022/05/27 07:24:09;;;;;;;;;11.33;10.67;;;;;21.71;52.53;100200.85;110063;1265;23893;-48
2022/05/27 07:26:36;;;;;;;;;9.67;9.67;;;;;21.81;52.40;100190.04;110158;1265;18598;-47
2022/05/27 07:29:04;;;;;;;;;10.00;9.00;;;;;21.85;52.23;100200.77;110200;1264;18871;-48
2022/05/27 07:31:31;;;;;;;;;9.33;9.00;;;;;21.90;51.99;100208.95;110170;1264;19573;-49
2022/05/27 07:33:58;;;;;;;;;12.00;9.00;;;;;21.94;51.96;100221.63;110215;1265;18995;-47
2022/05/27 07:36:25;;;;;;;;;10.00;10.00;;;;;21.99;51.71;100231.77;110176;1264;18795;-46
2022/05/27 07:38:53;;;;;;;;;9.33;9.00;;;;;21.99;51.17;100244.44;110216;1265;22055;-47
2022/05/27 07:41:20;;;;;;;;;9.00;9.00;;;;;21.99;51.45;100244.15;110150;1264;18930;-45
2022/05/27 07:43:47;;;;;;;;;8.00;8.00;;;;;22.00;51.37;100246.69;110199;1264;18765;-47
2022/05/27 07:46:15;;;;;;;;;8.00;8.00;;;;;22.01;50.98;100248.17;110137;1265;19540;-48
2022/05/27 07:48:42;;;;;;;;;8.00;8.00;;;;;22.01;50.63;100243.48;110146;1265;18480;-48
2022/05/27 07:51:10;;;;;;;;;8.50;8.00;;;;;22.01;50.78;100226.39;110195;1265;18918;-48
2022/05/27 07:53:38;;;;;;;;;8.67;8.33;;;;;22.00;50.34;100234.45;110158;1265;19912;-49
2022/05/27 07:56:05;;;;;;;;;8.67;8.67;;;;;21.97;50.14;100212.70;110192;1265;18542;-49
2022/05/27 07:58:32;;;;;;;;;10.00;9.00;;;;;21.93;50.27;100213.29;110185;1265;18783;-46
2022/05/27 08:01:00;;;;;;;;;6.67;6.67;;;;;21.95;50.21;100237.67;110167;1264;19491;-47
2022/05/27 08:03:27;;;;;;;;;9.00;8.00;;;;;21.98;49.79;100254.27;110158;1264;19788;-48
2022/05/27 08:05:55;;;;;;;;;8.00;8.00;;;;;22.00;49.94;100258.56;110291;1264;18765;-48
2022/05/27 08:08:23;;;;;;;;;8.00;8.00;;;;;21.97;49.82;100264.77;110174;1264;19695;-49
2022/05/27 08:10:50;;;;;;;;;8.00;8.00;;;;;21.91;50.10;100255.64;110206;1264;18385;-46
2022/05/27 08:13:17;;;;;;;;;8.00;8.00;;;;;21.84;50.04;100252.55;110231;1264;18700;-48
2022/05/27 08:15:44;;;;;;;;;5.00;5.00;;;;;21.84;50.07;100242.54;110248;1264;19593;-48
2022/05/27 08:18:11;;;;;;;;;8.00;8.00;;;;;21.80;50.30;100230.52;110289;1264;22988;-48
2022/05/27 08:20:39;;;;;;;;;8.00;8.00;;;;;21.81;50.23;100204.42;110189;1263;18921;-49
2022/05/27 08:23:07;;;;;;;;;6.00;5.67;;;;;21.89;50.15;100222.88;110086;1264;19553;-47
2022/05/27 08:25:35;;;;;;;;;6.00;6.00;;;;;21.88;49.84;100219.02;110170;1264;22269;-47
2022/05/27 08:28:02;;;;;;;;;9.00;9.00;;;;;21.79;50.02;100223.16;110130;1264;18705;-44
2022/05/27 08:30:29;;;;;;;;;9.00;8.33;;;;;21.69;50.29;100213.56;110197;1264;19557;-45
2022/05/27 08:32:56;;;;;;;;;8.00;8.00;;;;;21.62;50.38;100239.07;110210;1263;18491;-47
2022/05/27 08:38:09;;;;;;;;;8.67;8.67;;;;;21.59;50.28;100216.79;110239;1264;19547;-48
2022/05/27 08:40:36;;;;;;;;;9.00;8.00;;;;;21.59;50.61;100209.27;110240;1264;18527;-47
2022/05/27 08:43:04;;;;;;;;;8.00;8.00;;;;;21.59;50.67;100205.20;110236;1264;18925;-48
2022/05/27 08:45:32;;;;;;;;;5.50;5.50;;;;;21.64;50.40;100200.88;110214;1264;19686;-47
2022/05/27 08:47:59;;;;;;;;;8.00;7.33;;;;;21.68;50.55;100188.16;110293;1264;18487;-47
2022/05/27 08:50:26;;;;;;;;;6.00;6.00;;;;;21.56;50.13;100202.60;110171;1264;21972;-47
2022/05/27 08:52:54;;;;;;;;;6.00;6.00;;;;;21.18;49.92;100210.91;110156;1264;22820;-47
2022/05/27 09:00:47;;;;;;;;;6.67;5.67;;;;;21.18;49.34;100214.42;110169;1264;19452;-48
2022/05/27 09:03:15;;;;;;;;;6.00;6.00;;;;;21.02;49.18;100216.55;110199;1264;18712;-49
2022/05/27 09:05:42;;;;;;;;;6.67;6.00;;;;;20.89;48.95;100216.80;110227;1264;19027;-49
2022/05/27 09:08:10;;;;;;;;;8.00;8.00;;;;;20.86;48.81;100225.34;110183;1264;19690;-49
2022/05/27 09:10:37;;;;;;;;;6.00;6.00;;;;;20.74;48.87;100230.19;110270;1264;18650;-49
2022/05/27 09:13:05;;;;;;;;;6.00;6.00;;;;;20.79;48.77;100221.05;110220;1264;19622;-48
2022/05/27 09:15:32;;;;;;;;;8.00;8.00;;;;;20.94;48.30;100219.05;110243;1263;19762;-49
2022/05/27 09:18:00;;;;;;;;;5.33;5.33;;;;;20.91;48.38;100207.13;110242;1264;18432;-48
2022/05/27 09:20:27;;;;;;;;;6.00;6.00;;;;;20.92;48.81;100204.22;110240;1264;18749;-48
2022/05/27 09:22:54;;;;;;;;;6.67;6.67;;;;;21.25;48.30;100198.05;110234;1263;19563;-49
2022/05/27 09:25:21;;;;;;;;;7.33;6.00;;;;;21.53;47.97;100190.20;110216;1264;18722;-46
2022/05/27 09:27:49;;;;;;;;;6.00;5.67;;;;;21.71;47.37;100184.45;110230;1263;18677;-48
2022/05/27 09:30:16;;;;;;;;;6.00;6.00;;;;;21.70;47.54;100176.72;110221;1263;19699;-48
2022/05/27 09:32:43;;;;;;;;;9.50;8.50;;;;;21.49;47.88;100175.70;110276;1264;18748;-49
2022/05/27 09:35:10;;;;;;;;;29.00;26.50;;;;;21.32;48.35;100184.88;110254;1263;22214;-49
2022/05/27 09:37:38;;;;;;;;;112.25;101.00;;;;;21.33;48.27;100183.42;110212;1264;19536;-48
2022/05/27 09:40:05;;;;;;;;;164.25;147.25;;;;;21.18;48.30;100180.33;110156;1264;19221;-50
2022/05/27 09:42:32;;;;;;;;;117.00;102.00;;;;;21.14;47.99;100187.88;110205;1264;19180;-47
2022/05/27 09:45:01;;;;;;;;;106.25;91.00;;;;;21.24;47.68;100179.81;110256;1264;20184;-47
2022/05/27 09:47:29;;;;;;;;;97.00;80.00;;;;;21.35;47.47;100184.81;110203;1263;19221;-47
2022/05/27 09:49:56;;;;;;;;;84.00;63.00;;;;;21.44;47.17;100181.73;110250;1264;20517;-48
2022/05/27 09:52:24;;;;;;;;;60.33;47.67;;;;;21.45;46.93;100179.59;110107;1262;19739;-48
2022/05/27 09:54:51;;;;;;;;;51.67;43.00;;;;;21.37;46.48;100177.89;110270;1262;19075;-50
2022/05/27 09:57:22;;;;;;;;;40.67;36.67;;;;;21.27;46.23;100172.05;110233;1263;19116;-48
2022/05/27 09:59:53;;;;;;;;;32.50;27.00;;;;;21.21;45.65;100168.62;110281;1264;19507;-49
2022/05/27 10:02:20;;;;;;;;;27.33;25.33;;;;;21.13;45.35;100168.30;110177;1264;22958;-47
2022/05/27 10:04:47;;;;;;;;;20.67;18.33;;;;;21.12;45.11;100165.25;110201;1263;18987;-49
2022/05/27 10:07:14;;;;;;;;;19.00;17.67;;;;;21.18;44.83;100155.96;110258;1264;19555;-45
2022/05/27 10:09:42;;;;;;;;;15.50;13.00;;;;;21.21;44.64;100156.27;110210;1262;18707;-47
2022/05/27 10:12:09;;;;;;;;;12.00;12.00;;;;;21.25;44.37;100155.42;110284;1263;18921;-47
2022/05/27 10:14:39;;;;;;;;;12.00;11.00;;;;;21.26;44.08;100157.73;110154;1264;19393;-46
2022/05/27 10:17:08;;;;;;;;;10.00;9.67;;;;;21.22;43.68;100151.38;110166;1264;18984;-48
2022/05/27 10:19:35;;;;;;;;;12.00;11.00;;;;;21.21;43.46;100153.66;110018;1264;18813;-49
2022/05/27 10:22:02;;;;;;;;;11.00;9.00;;;;;21.20;43.42;100152.33;110078;1262;19679;-48
2022/05/27 10:24:29;;;;;;;;;9.00;9.00;;;;;21.11;43.26;100151.33;110109;1263;23238;-47
2022/05/27 10:26:57;;;;;;;;;9.00;8.00;;;;;21.13;43.11;100142.52;110298;1263;20309;-47
2022/05/27 10:29:24;;;;;;;;;9.00;9.00;;;;;21.08;43.28;100145.94;110276;1263;21637;-49
2022/05/27 10:31:51;;;;;;;;;7.33;7.33;;;;;21.11;43.42;100137.54;110238;1264;24460;-48
2022/05/27 10:34:19;;;;;;;;;8.00;8.00;;;;;21.17;43.42;100133.20;110264;1264;18768;-48
2022/05/27 10:36:46;;;;;;;;;8.00;8.00;;;;;21.18;43.76;100142.61;110231;1262;19481;-50
2022/05/27 10:39:13;;;;;;;;;7.33;7.33;;;;;21.16;43.92;100144.33;110311;1264;21111;-47
2022/05/27 10:41:41;;;;;;;;;8.33;8.00;;;;;21.14;43.18;100143.23;110274;1264;18584;-50
2022/05/27 10:44:08;;;;;;;;;6.00;6.00;;;;;20.97;42.76;100139.83;110205;1264;19559;-49
2022/05/27 10:46:35;;;;;;;;;9.00;8.00;;;;;20.95;42.42;100143.37;110215;1264;18766;-48
2022/05/27 10:49:02;;;;;;;;;8.67;8.00;;;;;20.89;42.30;100147.09;110235;1262;23179;-47
2022/05/27 10:51:30;;;;;;;;;6.00;6.00;;;;;20.92;42.07;100140.83;110126;1263;23982;-50
2022/05/27 10:53:57;;;;;;;;;6.00;6.00;;;;;20.98;42.35;100139.15;110305;1262;18567;-50
2022/05/27 10:56:24;;;;;;;;;8.33;8.33;;;;;21.05;42.43;100128.60;110263;1262;18755;-50
2022/05/27 11:04:27;;;;;;;;;6.00;6.00;;;;;21.02;42.46;100131.38;109501;1270;19627;-48
2022/05/27 11:06:54;;;;;;;;;8.00;8.00;;;;;21.00;42.41;100128.16;109444;1269;19577;-47
2022/05/27 11:09:22;;;;;;;;;6.00;6.00;;;;;20.97;41.93;100124.19;109431;1269;18558;-47
2022/05/27 11:11:49;;;;;;;;;8.00;6.00;;;;;20.91;41.17;100124.29;109517;1270;18801;-50
2022/05/27 11:17:01;;;;;;;;;8.50;8.00;;;;;20.89;39.98;100118.49;109534;1270;24953;-47
2022/05/27 11:19:28;;;;;;;;;8.00;7.67;;;;;20.95;39.95;100124.16;109481;1269;21455;-49
2022/05/27 11:21:56;;;;;;;;;6.00;6.00;;;;;20.88;39.73;100134.81;109514;1270;19553;-50
2022/05/27 11:24:24;;;;;;;;;6.00;6.00;;;;;20.79;39.45;100137.15;109514;1269;18727;-48
2022/05/27 11:26:52;;;;;;;;;6.00;6.00;;;;;20.76;39.37;100139.20;109553;1270;18844;-49
2022/05/27 11:29:19;;;;;;;;;8.00;8.00;;;;;20.69;39.08;100128.77;109516;1268;22239;-50
2022/05/27 11:31:46;;;;;;;;;8.67;8.00;;;;;20.70;39.25;100125.18;109540;1268;18649;-47
2022/05/27 11:34:14;;;;;;;;;7.67;6.33;;;;;20.72;39.26;100123.66;109560;1268;21116;-50
2022/05/27 11:36:41;;;;;;;;;8.00;8.00;;;;;20.89;38.83;100115.80;109544;1269;19956;-50
2022/05/27 11:39:09;;;;;;;;;5.00;5.00;;;;;20.99;38.50;100116.70;110234;1262;19003;-50
2022/05/27 11:41:37;;;;;;;;;5.00;4.00;;;;;20.95;38.32;100119.60;110284;1262;18765;-48